Temp: 17.6°C   Baro: 1036.9mb
  Wind: 0.9mph   Dir: NW (305°)
  Rain: 0.0mm (0.0mm/hr)
  Solar: 638W/m2  Hum: 66%

  • No weather warnings have been issued for the Bath area at this time.

10 day detailed forecast for Bath, United Kingdom

Last update: 26.05.2020 01:16
Next update: 26.05.2020 07:23
Latitude: 51.38° N
Longitude: 2.36° W
meteogram
    Temperature Precipitation Pressure Wind Humidity Clouds Fog
 04:03     20:09 Today
09:00   1036.8 mb 6 mph 49% 99%
10:00   1036.7 mb 6 mph 46% 99%
11:00   1036.7 mb 5 mph 51% 98%
12:00   1036.6 mb 5 mph 57% 91%
13:00   1036.3 mb 5 mph 58% 86%
14:00   1035.8 mb 8 mph 54% 100%
15:00   1035.6 mb 9 mph 57% 98%
16:00   1035.2 mb 9 mph 60% 84%
17:00   1035.0 mb 6 mph 59% 63%
18:00   1034.9 mb 6 mph 59% 85%
19:00   1035.0 mb 6 mph 66% 53%
20:00   1035.3 mb 6 mph 74% 33%
21:00   1035.6 mb 6 mph 81% 20%
22:00   1035.7 mb 5 mph 88% 9%
23:00   1036.0 mb 4 mph 93% 32%
 04:02     20:10 Tomorrow
00:00   1036.1 mb 7 mph 89% 22%
01:00   1036.1 mb 8 mph 75% 66%
02:00   1036.1 mb 7 mph 69% 33%
03:00   1036.1 mb 6 mph 67% 45%
04:00   1036.2 mb 5 mph 68% 54%
05:00   1036.3 mb 6 mph 69% 2%
06:00   1036.5 mb 5 mph 64% 4%
07:00   1036.5 mb 5 mph 58% 2%
08:00   1036.4 mb 6 mph 52% 2%
09:00   1036.3 mb 6 mph 49% 1%
10:00   1036.2 mb 6 mph 49% 3%
11:00   1035.8 mb 5 mph 49% 1%
12:00   1035.3 mb 4 mph 48% 0%
13:00   1034.9 mb 4 mph 45% 0%
14:00   1034.5 mb 5 mph 41% 59%
15:00   1034.1 mb 6 mph 38% 67%
16:00   1033.8 mb 7 mph 37% 36%
17:00   1033.5 mb 8 mph 35% 50%
18:00   1033.4 mb 8 mph 36% 21%
19:00   1033.3 mb 5 mph 45% 2%
20:00   1033.5 mb 5 mph 51% 0%
21:00   1033.8 mb 4 mph 58% 0%
22:00   1033.8 mb 5 mph 63% 0%
23:00   1033.6 mb 4 mph 64% 2%
 04:01     20:12 Thursday 28.05.2020
00:00   1033.4 mb 4 mph 69% 43%
01:00   1033.4 mb 6 mph 77% 53%
02:00   1033.5 mb 6 mph 82% 21%
03:00   1033.6 mb 6 mph 83% 54%
04:00   1033.6 mb 5 mph 83% 3%
05:00   1033.5 mb 5 mph 79% 0%
06:00   1033.4 mb 5 mph 72% 42%
07:00   1033.2 mb 5 mph 62% 33%
08:00   1032.8 mb 5 mph 53% 44%
09:00   1032.3 mb 5 mph 51% 45%
10:00   1031.9 mb 4 mph 49% 51%
11:00   1031.4 mb 4 mph 47% 0%
12:00   1030.6 mb 4 mph 45% 49%
13:00   1030.0 mb 4 mph 44% 45%
14:00   1029.4 mb 4 mph 43% 0%
15:00   1028.7 mb 5 mph 42% 12%
16:00   1028.2 mb 6 mph 40% 15%
17:00   1027.8 mb 7 mph 40% 16%
18:00   1027.4 mb 6 mph 41% 31%
 04:00     20:13 Friday 29.05.2020
00:00   1028.9 mb 5 mph 57% 1%
06:00   1027.9 mb 7 mph 55% 2%
12:00   1026.0 mb 8 mph 40% 0%
18:00   1022.8 mb 10 mph 40% 4%
 03:59     20:14 Saturday 30.05.2020
00:00   1024.5 mb 7 mph 42% 20%
06:00   1023.9 mb 7 mph 62% 13%
12:00   1023.0 mb 8 mph 34% 90%
18:00   1020.9 mb 8 mph 32% 38%
 03:58     20:15 Sunday 31.05.2020
00:00   1023.5 mb 7 mph 50% 2%
06:00   1023.4 mb 6 mph 62% 35%
12:00   1022.8 mb 11 mph 30% 86%
18:00   1021.1 mb 11 mph 36% 25%
 03:58     20:16 Monday 01.06.2020
00:00   1023.5 mb 5 mph 50% 0%
06:00   1023.6 mb 5 mph 61% 0%
12:00   1022.5 mb 8 mph 35% 24%
18:00   1019.9 mb 7 mph 31% 0%
 03:57     20:17 Tuesday 02.06.2020
00:00   1019.5 mb 5 mph 64% 2%
06:00   1017.1 mb 5 mph 58% 5%
12:00   1013.7 mb 6 mph 39% 94%
18:00   1010.3 mb 13 mph 53% 95%
 03:56     20:18 Wednesday 03.06.2020
00:00 2.0 mm 1008.1 mb 0 mph 84% 93%
06:00 0.6 mm 1005.8 mb 6 mph 92% 97%
12:00 0.1 mm 1005.4 mb 10 mph 58% 81%
18:00 0.1 mm 1004.8 mb 13 mph 50% 65%
 03:56     20:19 Thursday 04.06.2020
00:00   1006.4 mb 9 mph 76% 84%
06:00   1005.4 mb 6 mph 79% 100%